Fallon, NV

2:57 PM PST on December 27, 2014 (GMT -0800)
Fallon Naval Air Station | Change Station
CLOSE
Current Station
Airport
Location: Fallon NAS,
Elevation: 3934 ft
Nearby Weather Stations

Elev 3934 ft 39.42 °N, 118.70 °W | Updated 1 hour ago

Mostly Cloudy
Mostly Cloudy
37 °F
Feels Like 33 °F
N
5
Wind Variable Wind from SSE

Today
High -- | Low -- °F
--% Chance of Precip.
Yesterday
High -- | Low -- °F
Precip. -- in
7:14 AM 4:38 PM
Waxing Crescent, 41% visible
Pressure 30.17 in
Visibility 10.0 miles
Clouds Few 15000 ft
Scattered Clouds 20000 ft
Mostly Cloudy 25000 ft
Windchill 33 °F
Dew Point 14 °F
Humidity 39%
Rainfall 0.00 in
Snow Depth Not available.
UV 1 out of 12
Pollen .30 out of 12
Air Quality Not available.
Flu Activity Not available.
METAR KNFL 272156Z 15004KT 10SM FEW150 SCT200 BKN250 03/M10 A3028 RMK AO2 SLP214 T00281100

More Conditions Fewer Conditions

Pressure 30.17 in
Visibility 10.0 miles
Clouds Few 15000 ft
Scattered Clouds 20000 ft
Mostly Cloudy 25000 ft
Windchill 33 °F
Dew Point 14 °F
Humidity 39%
Rainfall 0.00 in
Snow Depth Not available.
UV 1 out of 12
Pollen .30 out of 12
Air Quality Not available.
Flu Activity Not available.
METAR KNFL 272156Z 15004KT 10SM FEW150 SCT200 BKN250 03/M10 A3028 RMK AO2 SLP214 T00281100

More Conditions Fewer Conditions

10-Day Weather Forecast

Almanac

Astronomy

Dec. 27, 2014 Rise Set
Actual Time
Civil Twilight
Nautical Twilight
Astronomical Twilight
Moon
Length of Visible Light
Length of Day
Tomorrow will be .
, % of the Moon is Illuminated

Today's Extremes

State Highs State Lows

Community

WunderPhotos

Upload Photos

1,781,098 photos uploaded!

WunderBlogs® & News

Nearby

Air Quality

  Air Quality AQ Index Pollutant
Not available.

Snow Depth

Station Depth Elevation

Earthquake Activity

City Distance Mag. Time & Date
Minimum magnitude displayed is 2.5.

Coastal Water Temperatures

Place Temperature

Nearby Weather Stations